sensor_id;sensor_type;location;lat;lon;timestamp;P1;durP1;ratioP1;P2;durP2;ratioP2
13309;SDS011;6723;48.256;16.402;2023-07-30T00:02:17;3.63;;;2.27;;
13309;SDS011;6723;48.256;16.402;2023-07-30T00:04:43;2.23;;;2.03;;
13309;SDS011;6723;48.256;16.402;2023-07-30T00:07:10;2.47;;;2.27;;
13309;SDS011;6723;48.256;16.402;2023-07-30T00:09:36;2.17;;;2.07;;
13309;SDS011;6723;48.256;16.402;2023-07-30T00:12:03;2.67;;;1.90;;
13309;SDS011;6723;48.256;16.402;2023-07-30T00:14:30;2.47;;;2.27;;
13309;SDS011;6723;48.256;16.402;2023-07-30T00:16:56;2.10;;;1.97;;
13309;SDS011;6723;48.256;16.402;2023-07-30T00:19:21;2.20;;;2.00;;
13309;SDS011;6723;48.256;16.402;2023-07-30T00:21:47;2.47;;;1.90;;
13309;SDS011;6723;48.256;16.402;2023-07-30T00:24:13;4.03;;;2.00;;
13309;SDS011;6723;48.256;16.402;2023-07-30T00:26:39;2.97;;;2.10;;
13309;SDS011;6723;48.256;16.402;2023-07-30T00:29:04;2.20;;;2.00;;
13309;SDS011;6723;48.256;16.402;2023-07-30T00:31:30;3.67;;;1.73;;
13309;SDS011;6723;48.256;16.402;2023-07-30T00:33:56;2.10;;;1.90;;
13309;SDS011;6723;48.256;16.402;2023-07-30T00:36:21;2.00;;;1.90;;
13309;SDS011;6723;48.256;16.402;2023-07-30T00:38:47;3.20;;;2.03;;
13309;SDS011;6723;48.256;16.402;2023-07-30T00:41:13;3.33;;;2.00;;
13309;SDS011;6723;48.256;16.402;2023-07-30T00:43:39;2.40;;;2.20;;
13309;SDS011;6723;48.256;16.402;2023-07-30T00:46:04;2.27;;;1.90;;
13309;SDS011;6723;48.256;16.402;2023-07-30T00:48:30;2.07;;;1.87;;
13309;SDS011;6723;48.256;16.402;2023-07-30T00:50:57;2.03;;;1.83;;
13309;SDS011;6723;48.256;16.402;2023-07-30T00:53:24;1.90;;;1.80;;
13309;SDS011;6723;48.256;16.402;2023-07-30T00:55:52;2.20;;;1.90;;
13309;SDS011;6723;48.256;16.402;2023-07-30T00:58:18;3.00;;;2.17;;
13309;SDS011;6723;48.256;16.402;2023-07-30T01:00:46;2.37;;;2.10;;
13309;SDS011;6723;48.256;16.402;2023-07-30T01:03:12;2.43;;;1.93;;
13309;SDS011;6723;48.256;16.402;2023-07-30T01:05:38;2.47;;;1.90;;
13309;SDS011;6723;48.256;16.402;2023-07-30T01:08:04;2.03;;;1.90;;
13309;SDS011;6723;48.256;16.402;2023-07-30T01:10:30;2.03;;;1.83;;
13309;SDS011;6723;48.256;16.402;2023-07-30T01:13:01;3.17;;;2.27;;
13309;SDS011;6723;48.256;16.402;2023-07-30T01:15:30;2.30;;;2.10;;
13309;SDS011;6723;48.256;16.402;2023-07-30T01:17:56;2.33;;;2.10;;
13309;SDS011;6723;48.256;16.402;2023-07-30T01:20:22;2.13;;;1.93;;
13309;SDS011;6723;48.256;16.402;2023-07-30T01:22:51;1.87;;;1.77;;
13309;SDS011;6723;48.256;16.402;2023-07-30T01:25:17;3.10;;;2.03;;
13309;SDS011;6723;48.256;16.402;2023-07-30T01:27:46;3.10;;;1.97;;
13309;SDS011;6723;48.256;16.402;2023-07-30T01:30:26;2.63;;;2.37;;
13309;SDS011;6723;48.256;16.402;2023-07-30T01:32:55;2.30;;;2.10;;
13309;SDS011;6723;48.256;16.402;2023-07-30T01:35:25;1.80;;;1.70;;
13309;SDS011;6723;48.256;16.402;2023-07-30T01:37:53;2.50;;;2.30;;
13309;SDS011;6723;48.256;16.402;2023-07-30T01:40:20;3.23;;;1.90;;
13309;SDS011;6723;48.256;16.402;2023-07-30T01:42:47;3.30;;;2.60;;
13309;SDS011;6723;48.256;16.402;2023-07-30T01:45:14;2.10;;;1.90;;
13309;SDS011;6723;48.256;16.402;2023-07-30T01:47:40;2.43;;;2.23;;
13309;SDS011;6723;48.256;16.402;2023-07-30T01:50:06;2.47;;;1.90;;
13309;SDS011;6723;48.256;16.402;2023-07-30T01:52:31;2.53;;;1.90;;
13309;SDS011;6723;48.256;16.402;2023-07-30T01:54:58;3.40;;;2.43;;
13309;SDS011;6723;48.256;16.402;2023-07-30T01:57:26;3.20;;;2.00;;
13309;SDS011;6723;48.256;16.402;2023-07-30T01:59:52;2.43;;;2.23;;
13309;SDS011;6723;48.256;16.402;2023-07-30T02:02:18;2.33;;;2.13;;
13309;SDS011;6723;48.256;16.402;2023-07-30T02:04:44;2.80;;;2.20;;
13309;SDS011;6723;48.256;16.402;2023-07-30T02:07:09;2.40;;;2.20;;
13309;SDS011;6723;48.256;16.402;2023-07-30T02:09:35;4.03;;;2.17;;
13309;SDS011;6723;48.256;16.402;2023-07-30T02:12:01;2.00;;;1.83;;
13309;SDS011;6723;48.256;16.402;2023-07-30T02:14:27;3.57;;;2.27;;
13309;SDS011;6723;48.256;16.402;2023-07-30T02:16:52;2.67;;;2.33;;
13309;SDS011;6723;48.256;16.402;2023-07-30T02:19:18;3.50;;;2.60;;
13309;SDS011;6723;48.256;16.402;2023-07-30T02:21:44;2.03;;;1.90;;
13309;SDS011;6723;48.256;16.402;2023-07-30T02:24:10;3.07;;;2.27;;
13309;SDS011;6723;48.256;16.402;2023-07-30T02:26:40;3.20;;;2.30;;
13309;SDS011;6723;48.256;16.402;2023-07-30T02:29:06;2.10;;;1.90;;
13309;SDS011;6723;48.256;16.402;2023-07-30T02:31:31;2.57;;;2.20;;
13309;SDS011;6723;48.256;16.402;2023-07-30T02:33:58;2.27;;;2.07;;
13309;SDS011;6723;48.256;16.402;2023-07-30T02:36:24;2.03;;;1.83;;
13309;SDS011;6723;48.256;16.402;2023-07-30T02:38:49;3.20;;;1.90;;
13309;SDS011;6723;48.256;16.402;2023-07-30T02:41:16;2.30;;;2.10;;
13309;SDS011;6723;48.256;16.402;2023-07-30T02:43:42;2.07;;;1.80;;
13309;SDS011;6723;48.256;16.402;2023-07-30T02:46:08;4.37;;;2.33;;
13309;SDS011;6723;48.256;16.402;2023-07-30T02:48:33;2.20;;;2.00;;
13309;SDS011;6723;48.256;16.402;2023-07-30T02:50:59;2.57;;;1.80;;
13309;SDS011;6723;48.256;16.402;2023-07-30T02:53:25;3.00;;;2.03;;
13309;SDS011;6723;48.256;16.402;2023-07-30T02:55:51;2.40;;;1.80;;
13309;SDS011;6723;48.256;16.402;2023-07-30T02:58:17;2.00;;;1.80;;
13309;SDS011;6723;48.256;16.402;2023-07-30T03:00:43;3.17;;;1.80;;
13309;SDS011;6723;48.256;16.402;2023-07-30T03:03:08;2.57;;;1.93;;
13309;SDS011;6723;48.256;16.402;2023-07-30T03:05:34;2.33;;;2.07;;
13309;SDS011;6723;48.256;16.402;2023-07-30T03:08:00;4.20;;;1.83;;
13309;SDS011;6723;48.256;16.402;2023-07-30T03:10:26;2.10;;;1.90;;
13309;SDS011;6723;48.256;16.402;2023-07-30T03:12:52;3.20;;;2.30;;
13309;SDS011;6723;48.256;16.402;2023-07-30T03:15:18;2.77;;;1.90;;
13309;SDS011;6723;48.256;16.402;2023-07-30T03:17:43;2.60;;;1.90;;
13309;SDS011;6723;48.256;16.402;2023-07-30T03:20:09;2.00;;;1.80;;
13309;SDS011;6723;48.256;16.402;2023-07-30T03:22:35;2.57;;;1.77;;
13309;SDS011;6723;48.256;16.402;2023-07-30T03:25:01;2.10;;;1.90;;
13309;SDS011;6723;48.256;16.402;2023-07-30T03:27:26;2.30;;;2.10;;
13309;SDS011;6723;48.256;16.402;2023-07-30T03:29:52;3.50;;;2.30;;
13309;SDS011;6723;48.256;16.402;2023-07-30T03:32:18;2.00;;;1.80;;
13309;SDS011;6723;48.256;16.402;2023-07-30T03:34:44;2.30;;;1.87;;
13309;SDS011;6723;48.256;16.402;2023-07-30T03:37:09;2.57;;;2.37;;
13309;SDS011;6723;48.256;16.402;2023-07-30T03:39:35;2.10;;;1.90;;
13309;SDS011;6723;48.256;16.402;2023-07-30T03:42:01;2.13;;;1.93;;
13309;SDS011;6723;48.256;16.402;2023-07-30T03:44:27;2.40;;;2.20;;
13309;SDS011;6723;48.256;16.402;2023-07-30T03:46:52;2.43;;;1.90;;
13309;SDS011;6723;48.256;16.402;2023-07-30T03:49:18;3.33;;;2.03;;
13309;SDS011;6723;48.256;16.402;2023-07-30T03:51:44;2.20;;;2.00;;
13309;SDS011;6723;48.256;16.402;2023-07-30T03:54:10;2.87;;;2.13;;
13309;SDS011;6723;48.256;16.402;2023-07-30T03:56:35;2.97;;;1.97;;
13309;SDS011;6723;48.256;16.402;2023-07-30T03:59:01;2.63;;;1.90;;
13309;SDS011;6723;48.256;16.402;2023-07-30T04:01:27;3.00;;;2.07;;
13309;SDS011;6723;48.256;16.402;2023-07-30T04:03:54;2.47;;;2.17;;
13309;SDS011;6723;48.256;16.402;2023-07-30T04:06:19;2.50;;;2.30;;
13309;SDS011;6723;48.256;16.402;2023-07-30T04:08:45;2.30;;;2.10;;
13309;SDS011;6723;48.256;16.402;2023-07-30T04:11:11;2.20;;;2.00;;
13309;SDS011;6723;48.256;16.402;2023-07-30T04:13:37;2.10;;;1.90;;
13309;SDS011;6723;48.256;16.402;2023-07-30T04:16:03;2.10;;;1.90;;
13309;SDS011;6723;48.256;16.402;2023-07-30T04:18:28;2.20;;;2.00;;
13309;SDS011;6723;48.256;16.402;2023-07-30T04:20:57;2.37;;;2.17;;
13309;SDS011;6723;48.256;16.402;2023-07-30T04:23:22;2.37;;;1.97;;
13309;SDS011;6723;48.256;16.402;2023-07-30T04:25:49;2.40;;;2.20;;
13309;SDS011;6723;48.256;16.402;2023-07-30T04:28:15;2.33;;;1.90;;
13309;SDS011;6723;48.256;16.402;2023-07-30T04:30:41;2.63;;;2.13;;
13309;SDS011;6723;48.256;16.402;2023-07-30T04:33:06;2.37;;;2.17;;
13309;SDS011;6723;48.256;16.402;2023-07-30T04:35:32;2.50;;;2.10;;
13309;SDS011;6723;48.256;16.402;2023-07-30T04:37:58;2.80;;;1.90;;
13309;SDS011;6723;48.256;16.402;2023-07-30T04:40:24;2.03;;;1.83;;
13309;SDS011;6723;48.256;16.402;2023-07-30T04:42:50;2.50;;;2.07;;
13309;SDS011;6723;48.256;16.402;2023-07-30T04:45:15;2.80;;;2.27;;
13309;SDS011;6723;48.256;16.402;2023-07-30T04:47:42;2.13;;;1.93;;
13309;SDS011;6723;48.256;16.402;2023-07-30T04:50:08;2.10;;;1.93;;
13309;SDS011;6723;48.256;16.402;2023-07-30T04:52:34;3.10;;;2.07;;
13309;SDS011;6723;48.256;16.402;2023-07-30T04:54:59;2.60;;;2.40;;
13309;SDS011;6723;48.256;16.402;2023-07-30T04:57:25;2.47;;;2.07;;
13309;SDS011;6723;48.256;16.402;2023-07-30T04:59:52;2.77;;;2.30;;
13309;SDS011;6723;48.256;16.402;2023-07-30T05:02:17;2.03;;;1.90;;
13309;SDS011;6723;48.256;16.402;2023-07-30T05:04:43;2.20;;;1.97;;
13309;SDS011;6723;48.256;16.402;2023-07-30T05:07:09;2.40;;;2.20;;
13309;SDS011;6723;48.256;16.402;2023-07-30T05:09:35;2.33;;;2.13;;
13309;SDS011;6723;48.256;16.402;2023-07-30T05:12:01;2.30;;;2.10;;
13309;SDS011;6723;48.256;16.402;2023-07-30T05:14:26;3.40;;;2.30;;
13309;SDS011;6723;48.256;16.402;2023-07-30T05:16:52;3.00;;;2.33;;
13309;SDS011;6723;48.256;16.402;2023-07-30T05:19:18;3.50;;;2.30;;
13309;SDS011;6723;48.256;16.402;2023-07-30T05:21:44;3.87;;;2.37;;
13309;SDS011;6723;48.256;16.402;2023-07-30T05:24:10;5.87;;;2.27;;
13309;SDS011;6723;48.256;16.402;2023-07-30T05:26:35;3.33;;;2.30;;
13309;SDS011;6723;48.256;16.402;2023-07-30T05:29:01;2.43;;;2.23;;
13309;SDS011;6723;48.256;16.402;2023-07-30T05:31:28;2.73;;;2.13;;
13309;SDS011;6723;48.256;16.402;2023-07-30T05:33:54;2.30;;;2.10;;
13309;SDS011;6723;48.256;16.402;2023-07-30T05:36:20;2.57;;;2.10;;
13309;SDS011;6723;48.256;16.402;2023-07-30T05:38:46;3.07;;;2.20;;
13309;SDS011;6723;48.256;16.402;2023-07-30T05:41:11;2.20;;;2.00;;
13309;SDS011;6723;48.256;16.402;2023-07-30T05:43:37;2.00;;;1.90;;
13309;SDS011;6723;48.256;16.402;2023-07-30T05:46:03;2.40;;;2.20;;
13309;SDS011;6723;48.256;16.402;2023-07-30T05:48:29;2.30;;;2.10;;
13309;SDS011;6723;48.256;16.402;2023-07-30T05:50:55;2.17;;;1.97;;
13309;SDS011;6723;48.256;16.402;2023-07-30T05:53:21;3.00;;;2.10;;
13309;SDS011;6723;48.256;16.402;2023-07-30T05:55:47;2.63;;;2.30;;
13309;SDS011;6723;48.256;16.402;2023-07-30T05:58:13;2.20;;;2.00;;
13309;SDS011;6723;48.256;16.402;2023-07-30T06:00:39;2.93;;;2.13;;
13309;SDS011;6723;48.256;16.402;2023-07-30T06:03:05;2.40;;;2.20;;
13309;SDS011;6723;48.256;16.402;2023-07-30T06:05:31;2.47;;;2.20;;
13309;SDS011;6723;48.256;16.402;2023-07-30T06:07:57;2.87;;;2.40;;
13309;SDS011;6723;48.256;16.402;2023-07-30T06:10:24;2.00;;;1.67;;
13309;SDS011;6723;48.256;16.402;2023-07-30T06:12:50;2.70;;;2.37;;
13309;SDS011;6723;48.256;16.402;2023-07-30T06:15:16;3.57;;;2.30;;
13309;SDS011;6723;48.256;16.402;2023-07-30T06:17:41;2.40;;;2.10;;
13309;SDS011;6723;48.256;16.402;2023-07-30T06:20:08;2.30;;;2.10;;
13309;SDS011;6723;48.256;16.402;2023-07-30T06:22:34;4.03;;;2.50;;
13309;SDS011;6723;48.256;16.402;2023-07-30T06:24:59;2.27;;;2.07;;
13309;SDS011;6723;48.256;16.402;2023-07-30T06:27:25;2.97;;;2.33;;
13309;SDS011;6723;48.256;16.402;2023-07-30T06:29:51;2.67;;;2.30;;
13309;SDS011;6723;48.256;16.402;2023-07-30T06:32:17;2.30;;;2.00;;
13309;SDS011;6723;48.256;16.402;2023-07-30T06:34:42;2.10;;;1.90;;
13309;SDS011;6723;48.256;16.402;2023-07-30T06:37:08;4.10;;;2.30;;
13309;SDS011;6723;48.256;16.402;2023-07-30T06:39:34;2.97;;;2.00;;
13309;SDS011;6723;48.256;16.402;2023-07-30T06:42:00;2.00;;;1.80;;
13309;SDS011;6723;48.256;16.402;2023-07-30T06:44:26;2.37;;;2.17;;
13309;SDS011;6723;48.256;16.402;2023-07-30T06:46:51;4.37;;;2.00;;
13309;SDS011;6723;48.256;16.402;2023-07-30T06:49:17;3.30;;;1.90;;
13309;SDS011;6723;48.256;16.402;2023-07-30T06:51:43;1.93;;;1.73;;
13309;SDS011;6723;48.256;16.402;2023-07-30T06:54:09;1.87;;;1.40;;
13309;SDS011;6723;48.256;16.402;2023-07-30T06:56:34;1.57;;;1.47;;
13309;SDS011;6723;48.256;16.402;2023-07-30T06:59:01;1.77;;;1.60;;
13309;SDS011;6723;48.256;16.402;2023-07-30T07:01:28;3.47;;;1.40;;
13309;SDS011;6723;48.256;16.402;2023-07-30T07:03:53;1.43;;;1.33;;
13309;SDS011;6723;48.256;16.402;2023-07-30T07:06:19;2.10;;;1.47;;
13309;SDS011;6723;48.256;16.402;2023-07-30T07:08:45;1.90;;;1.70;;
13309;SDS011;6723;48.256;16.402;2023-07-30T07:11:11;2.60;;;2.13;;
13309;SDS011;6723;48.256;16.402;2023-07-30T07:13:36;2.60;;;1.30;;
13309;SDS011;6723;48.256;16.402;2023-07-30T07:16:02;1.33;;;1.23;;
13309;SDS011;6723;48.256;16.402;2023-07-30T07:18:29;1.30;;;1.20;;
13309;SDS011;6723;48.256;16.402;2023-07-30T07:20:55;1.37;;;1.10;;
13309;SDS011;6723;48.256;16.402;2023-07-30T07:23:21;1.30;;;1.10;;
13309;SDS011;6723;48.256;16.402;2023-07-30T07:25:46;0.93;;;0.90;;
13309;SDS011;6723;48.256;16.402;2023-07-30T07:28:12;2.50;;;1.20;;
13309;SDS011;6723;48.256;16.402;2023-07-30T07:30:38;1.57;;;1.23;;
13309;SDS011;6723;48.256;16.402;2023-07-30T07:33:03;1.17;;;1.07;;
13309;SDS011;6723;48.256;16.402;2023-07-30T07:35:31;1.93;;;1.80;;
13309;SDS011;6723;48.256;16.402;2023-07-30T07:37:57;1.50;;;1.20;;
13309;SDS011;6723;48.256;16.402;2023-07-30T07:40:23;1.73;;;1.20;;
13309;SDS011;6723;48.256;16.402;2023-07-30T07:42:49;1.20;;;1.10;;
13309;SDS011;6723;48.256;16.402;2023-07-30T07:45:14;2.03;;;1.30;;
13309;SDS011;6723;48.256;16.402;2023-07-30T07:47:41;1.30;;;1.20;;
13309;SDS011;6723;48.256;16.402;2023-07-30T07:50:07;1.77;;;1.60;;
13309;SDS011;6723;48.256;16.402;2023-07-30T07:52:33;2.17;;;1.70;;
13309;SDS011;6723;48.256;16.402;2023-07-30T07:54:59;1.70;;;1.47;;
13309;SDS011;6723;48.256;16.402;2023-07-30T07:57:25;1.67;;;1.50;;
13309;SDS011;6723;48.256;16.402;2023-07-30T07:59:50;1.47;;;1.30;;
13309;SDS011;6723;48.256;16.402;2023-07-30T08:02:16;1.97;;;1.33;;
13309;SDS011;6723;48.256;16.402;2023-07-30T08:04:42;1.60;;;1.50;;
13309;SDS011;6723;48.256;16.402;2023-07-30T08:07:08;1.60;;;1.50;;
13309;SDS011;6723;48.256;16.402;2023-07-30T08:09:34;1.80;;;1.30;;
13309;SDS011;6723;48.256;16.402;2023-07-30T08:12:00;1.40;;;1.30;;
13309;SDS011;6723;48.256;16.402;2023-07-30T08:14:28;1.50;;;1.40;;
13309;SDS011;6723;48.256;16.402;2023-07-30T08:16:56;3.50;;;1.80;;
13309;SDS011;6723;48.256;16.402;2023-07-30T08:19:22;2.63;;;1.40;;
13309;SDS011;6723;48.256;16.402;2023-07-30T08:21:47;2.43;;;1.70;;
13309;SDS011;6723;48.256;16.402;2023-07-30T08:24:13;1.23;;;1.13;;
13309;SDS011;6723;48.256;16.402;2023-07-30T08:26:39;1.80;;;1.70;;
13309;SDS011;6723;48.256;16.402;2023-07-30T08:29:04;1.40;;;1.30;;
13309;SDS011;6723;48.256;16.402;2023-07-30T08:31:31;1.77;;;1.60;;
13309;SDS011;6723;48.256;16.402;2023-07-30T08:33:57;1.90;;;1.80;;
13309;SDS011;6723;48.256;16.402;2023-07-30T08:36:22;1.73;;;1.60;;
13309;SDS011;6723;48.256;16.402;2023-07-30T08:38:48;2.77;;;2.00;;
13309;SDS011;6723;48.256;16.402;2023-07-30T08:41:14;2.37;;;1.70;;
13309;SDS011;6723;48.256;16.402;2023-07-30T08:43:40;1.70;;;1.60;;
13309;SDS011;6723;48.256;16.402;2023-07-30T08:46:06;2.07;;;1.87;;
13309;SDS011;6723;48.256;16.402;2023-07-30T08:48:32;1.90;;;1.70;;
13309;SDS011;6723;48.256;16.402;2023-07-30T08:50:58;2.10;;;1.90;;
13309;SDS011;6723;48.256;16.402;2023-07-30T08:53:26;2.73;;;1.90;;
13309;SDS011;6723;48.256;16.402;2023-07-30T08:55:53;2.97;;;2.00;;
13309;SDS011;6723;48.256;16.402;2023-07-30T08:58:21;1.90;;;1.80;;
13309;SDS011;6723;48.256;16.402;2023-07-30T09:00:50;3.60;;;3.10;;
13309;SDS011;6723;48.256;16.402;2023-07-30T09:03:18;2.47;;;2.10;;
13309;SDS011;6723;48.256;16.402;2023-07-30T09:05:44;2.50;;;2.30;;
13309;SDS011;6723;48.256;16.402;2023-07-30T09:08:10;2.30;;;2.10;;
13309;SDS011;6723;48.256;16.402;2023-07-30T09:10:37;2.20;;;2.00;;
13309;SDS011;6723;48.256;16.402;2023-07-30T09:13:02;2.30;;;2.10;;
13309;SDS011;6723;48.256;16.402;2023-07-30T09:15:32;3.67;;;2.07;;
13309;SDS011;6723;48.256;16.402;2023-07-30T09:18:03;3.40;;;1.97;;
13309;SDS011;6723;48.256;16.402;2023-07-30T09:20:39;2.20;;;1.90;;
13309;SDS011;6723;48.256;16.402;2023-07-30T09:23:06;3.23;;;2.30;;
13309;SDS011;6723;48.256;16.402;2023-07-30T09:25:33;2.77;;;2.00;;
13309;SDS011;6723;48.256;16.402;2023-07-30T09:28:00;2.33;;;2.00;;
13309;SDS011;6723;48.256;16.402;2023-07-30T09:30:26;2.00;;;1.90;;
13309;SDS011;6723;48.256;16.402;2023-07-30T09:32:53;1.98;;;1.88;;
13309;SDS011;6723;48.256;16.402;2023-07-30T09:35:20;1.60;;;1.50;;
13309;SDS011;6723;48.256;16.402;2023-07-30T09:37:47;1.90;;;1.80;;
13309;SDS011;6723;48.256;16.402;2023-07-30T09:40:13;2.08;;;1.70;;
13309;SDS011;6723;48.256;16.402;2023-07-30T09:42:46;1.83;;;1.73;;
13309;SDS011;6723;48.256;16.402;2023-07-30T09:45:20;2.40;;;2.20;;
13309;SDS011;6723;48.256;16.402;2023-07-30T09:47:49;2.03;;;1.88;;
13309;SDS011;6723;48.256;16.402;2023-07-30T09:50:18;2.80;;;1.95;;
13309;SDS011;6723;48.256;16.402;2023-07-30T09:52:45;2.22;;;2.03;;
13309;SDS011;6723;48.256;16.402;2023-07-30T09:55:12;2.83;;;1.77;;
13309;SDS011;6723;48.256;16.402;2023-07-30T09:57:38;2.40;;;1.63;;
13309;SDS011;6723;48.256;16.402;2023-07-30T10:00:04;2.05;;;1.88;;
13309;SDS011;6723;48.256;16.402;2023-07-30T10:02:37;1.60;;;1.50;;
13309;SDS011;6723;48.256;16.402;2023-07-30T10:05:10;1.80;;;1.70;;
13309;SDS011;6723;48.256;16.402;2023-07-30T10:07:42;1.97;;;1.77;;
13309;SDS011;6723;48.256;16.402;2023-07-30T10:10:24;1.70;;;1.60;;
13309;SDS011;6723;48.256;16.402;2023-07-30T10:12:51;1.77;;;1.67;;
13309;SDS011;6723;48.256;16.402;2023-07-30T10:15:19;1.67;;;1.50;;
13309;SDS011;6723;48.256;16.402;2023-07-30T10:17:48;1.73;;;1.63;;
13309;SDS011;6723;48.256;16.402;2023-07-30T10:20:20;2.10;;;1.90;;
13309;SDS011;6723;48.256;16.402;2023-07-30T10:22:50;2.00;;;1.90;;
13309;SDS011;6723;48.256;16.402;2023-07-30T10:25:21;2.03;;;1.83;;
13309;SDS011;6723;48.256;16.402;2023-07-30T10:27:52;2.53;;;1.90;;
13309;SDS011;6723;48.256;16.402;2023-07-30T10:30:19;2.73;;;1.90;;
13309;SDS011;6723;48.256;16.402;2023-07-30T10:35:41;3.00;;;2.10;;
13309;SDS011;6723;48.256;16.402;2023-07-30T10:40:39;8.57;;;3.10;;
13309;SDS011;6723;48.256;16.402;2023-07-30T10:43:14;3.67;;;3.17;;
13309;SDS011;6723;48.256;16.402;2023-07-30T10:45:51;6.10;;;3.70;;
13309;SDS011;6723;48.256;16.402;2023-07-30T10:48:17;7.33;;;3.80;;
13309;SDS011;6723;48.256;16.402;2023-07-30T10:50:43;5.60;;;4.03;;
13309;SDS011;6723;48.256;16.402;2023-07-30T10:53:14;5.67;;;3.77;;
13309;SDS011;6723;48.256;16.402;2023-07-30T10:55:41;4.77;;;3.20;;
13309;SDS011;6723;48.256;16.402;2023-07-30T10:58:07;4.27;;;2.90;;
13309;SDS011;6723;48.256;16.402;2023-07-30T11:00:33;3.10;;;2.77;;
13309;SDS011;6723;48.256;16.402;2023-07-30T11:02:59;3.00;;;2.50;;
13309;SDS011;6723;48.256;16.402;2023-07-30T11:05:24;5.67;;;4.53;;
13309;SDS011;6723;48.256;16.402;2023-07-30T11:07:51;2.93;;;2.57;;
13309;SDS011;6723;48.256;16.402;2023-07-30T11:10:17;2.83;;;2.33;;
13309;SDS011;6723;48.256;16.402;2023-07-30T11:12:43;3.43;;;2.40;;
13309;SDS011;6723;48.256;16.402;2023-07-30T11:15:09;2.40;;;2.20;;
13309;SDS011;6723;48.256;16.402;2023-07-30T11:17:35;2.00;;;1.90;;
13309;SDS011;6723;48.256;16.402;2023-07-30T11:20:01;2.50;;;2.30;;
13309;SDS011;6723;48.256;16.402;2023-07-30T11:22:31;2.27;;;2.00;;
13309;SDS011;6723;48.256;16.402;2023-07-30T11:24:57;2.17;;;1.97;;
13309;SDS011;6723;48.256;16.402;2023-07-30T11:27:23;2.33;;;2.13;;
13309;SDS011;6723;48.256;16.402;2023-07-30T11:29:55;2.37;;;1.80;;
13309;SDS011;6723;48.256;16.402;2023-07-30T11:32:21;3.20;;;1.90;;
13309;SDS011;6723;48.256;16.402;2023-07-30T11:34:53;5.17;;;4.70;;
13309;SDS011;6723;48.256;16.402;2023-07-30T11:37:20;2.27;;;2.00;;
13309;SDS011;6723;48.256;16.402;2023-07-30T11:39:47;2.93;;;2.00;;
13309;SDS011;6723;48.256;16.402;2023-07-30T11:42:13;1.60;;;1.50;;
13309;SDS011;6723;48.256;16.402;2023-07-30T11:44:39;1.67;;;1.57;;
13309;SDS011;6723;48.256;16.402;2023-07-30T11:47:06;1.67;;;1.57;;
13309;SDS011;6723;48.256;16.402;2023-07-30T11:49:34;1.67;;;1.50;;
13309;SDS011;6723;48.256;16.402;2023-07-30T11:52:09;2.40;;;1.43;;
13309;SDS011;6723;48.256;16.402;2023-07-30T11:54:36;2.43;;;1.53;;
13309;SDS011;6723;48.256;16.402;2023-07-30T11:57:02;4.73;;;1.33;;
13309;SDS011;6723;48.256;16.402;2023-07-30T11:59:30;7.50;;;2.07;;
13309;SDS011;6723;48.256;16.402;2023-07-30T12:01:56;7.20;;;2.47;;
13309;SDS011;6723;48.256;16.402;2023-07-30T12:04:22;5.77;;;2.27;;
13309;SDS011;6723;48.256;16.402;2023-07-30T12:06:50;2.83;;;1.53;;
13309;SDS011;6723;48.256;16.402;2023-07-30T12:09:22;1.97;;;1.50;;
13309;SDS011;6723;48.256;16.402;2023-07-30T12:12:00;4.73;;;1.27;;
13309;SDS011;6723;48.256;16.402;2023-07-30T12:14:27;1.73;;;1.33;;
13309;SDS011;6723;48.256;16.402;2023-07-30T12:17:01;1.77;;;1.40;;
13309;SDS011;6723;48.256;16.402;2023-07-30T12:19:28;1.23;;;1.00;;
13309;SDS011;6723;48.256;16.402;2023-07-30T12:21:54;1.77;;;1.47;;
13309;SDS011;6723;48.256;16.402;2023-07-30T12:24:19;2.47;;;1.50;;
13309;SDS011;6723;48.256;16.402;2023-07-30T12:26:47;3.33;;;1.70;;
13309;SDS011;6723;48.256;16.402;2023-07-30T12:29:12;3.47;;;2.03;;
13309;SDS011;6723;48.256;16.402;2023-07-30T12:31:38;3.17;;;1.60;;
13309;SDS011;6723;48.256;16.402;2023-07-30T12:34:04;1.43;;;1.20;;
13309;SDS011;6723;48.256;16.402;2023-07-30T12:36:30;3.13;;;1.40;;
13309;SDS011;6723;48.256;16.402;2023-07-30T12:38:55;2.20;;;1.40;;
13309;SDS011;6723;48.256;16.402;2023-07-30T12:41:21;2.63;;;1.40;;
13309;SDS011;6723;48.256;16.402;2023-07-30T12:43:54;1.83;;;1.50;;
13309;SDS011;6723;48.256;16.402;2023-07-30T12:46:22;3.60;;;1.60;;
13309;SDS011;6723;48.256;16.402;2023-07-30T12:48:48;4.50;;;1.57;;
13309;SDS011;6723;48.256;16.402;2023-07-30T12:51:14;2.37;;;1.43;;
13309;SDS011;6723;48.256;16.402;2023-07-30T12:53:40;2.60;;;1.47;;
13309;SDS011;6723;48.256;16.402;2023-07-30T12:56:06;2.00;;;1.80;;
13309;SDS011;6723;48.256;16.402;2023-07-30T12:58:31;2.73;;;1.73;;
13309;SDS011;6723;48.256;16.402;2023-07-30T13:00:57;1.43;;;1.33;;
13309;SDS011;6723;48.256;16.402;2023-07-30T13:03:23;1.60;;;1.50;;
13309;SDS011;6723;48.256;16.402;2023-07-30T13:05:49;1.50;;;1.40;;
13309;SDS011;6723;48.256;16.402;2023-07-30T13:08:14;1.47;;;1.37;;
13309;SDS011;6723;48.256;16.402;2023-07-30T13:10:40;1.57;;;1.30;;
13309;SDS011;6723;48.256;16.402;2023-07-30T13:13:06;3.07;;;1.30;;
13309;SDS011;6723;48.256;16.402;2023-07-30T13:15:31;1.17;;;1.07;;
13309;SDS011;6723;48.256;16.402;2023-07-30T13:17:57;1.57;;;1.47;;
13309;SDS011;6723;48.256;16.402;2023-07-30T13:20:23;2.60;;;1.27;;
13309;SDS011;6723;48.256;16.402;2023-07-30T13:22:49;1.37;;;1.10;;
13309;SDS011;6723;48.256;16.402;2023-07-30T13:25:17;1.20;;;1.10;;
13309;SDS011;6723;48.256;16.402;2023-07-30T13:27:42;1.80;;;1.23;;
13309;SDS011;6723;48.256;16.402;2023-07-30T13:30:08;1.30;;;1.20;;
13309;SDS011;6723;48.256;16.402;2023-07-30T13:32:34;1.17;;;1.07;;
13309;SDS011;6723;48.256;16.402;2023-07-30T13:35:00;2.80;;;2.60;;
13309;SDS011;6723;48.256;16.402;2023-07-30T13:37:26;3.20;;;2.90;;
13309;SDS011;6723;48.256;16.402;2023-07-30T13:39:51;3.53;;;3.23;;
13309;SDS011;6723;48.256;16.402;2023-07-30T13:42:17;1.40;;;1.30;;
13309;SDS011;6723;48.256;16.402;2023-07-30T13:44:43;2.27;;;1.77;;
13309;SDS011;6723;48.256;16.402;2023-07-30T13:47:09;1.70;;;1.60;;
13309;SDS011;6723;48.256;16.402;2023-07-30T13:49:35;1.70;;;1.60;;
13309;SDS011;6723;48.256;16.402;2023-07-30T13:52:01;1.50;;;1.40;;
13309;SDS011;6723;48.256;16.402;2023-07-30T13:54:26;1.90;;;1.77;;
13309;SDS011;6723;48.256;16.402;2023-07-30T13:56:52;1.70;;;1.60;;
13309;SDS011;6723;48.256;16.402;2023-07-30T13:59:18;1.70;;;1.60;;
13309;SDS011;6723;48.256;16.402;2023-07-30T14:01:43;1.50;;;1.40;;
13309;SDS011;6723;48.256;16.402;2023-07-30T14:04:09;2.10;;;1.70;;
13309;SDS011;6723;48.256;16.402;2023-07-30T14:06:35;2.77;;;1.90;;
13309;SDS011;6723;48.256;16.402;2023-07-30T14:09:02;2.93;;;2.23;;
13309;SDS011;6723;48.256;16.402;2023-07-30T14:11:29;2.23;;;2.00;;
13309;SDS011;6723;48.256;16.402;2023-07-30T14:13:55;1.60;;;1.50;;
13309;SDS011;6723;48.256;16.402;2023-07-30T14:16:21;1.73;;;1.63;;
13309;SDS011;6723;48.256;16.402;2023-07-30T14:18:47;2.60;;;2.00;;
13309;SDS011;6723;48.256;16.402;2023-07-30T14:21:13;2.33;;;1.80;;
13309;SDS011;6723;48.256;16.402;2023-07-30T14:23:39;3.47;;;1.53;;
13309;SDS011;6723;48.256;16.402;2023-07-30T14:26:04;2.00;;;1.80;;
13309;SDS011;6723;48.256;16.402;2023-07-30T14:28:31;2.03;;;1.83;;
13309;SDS011;6723;48.256;16.402;2023-07-30T14:30:57;1.80;;;1.53;;
13309;SDS011;6723;48.256;16.402;2023-07-30T14:33:23;2.50;;;1.70;;
13309;SDS011;6723;48.256;16.402;2023-07-30T14:35:49;2.27;;;2.07;;
13309;SDS011;6723;48.256;16.402;2023-07-30T14:38:15;2.33;;;2.13;;
13309;SDS011;6723;48.256;16.402;2023-07-30T14:40:42;2.30;;;1.40;;
13309;SDS011;6723;48.256;16.402;2023-07-30T14:43:09;1.60;;;1.50;;
13309;SDS011;6723;48.256;16.402;2023-07-30T14:45:35;1.60;;;1.40;;
13309;SDS011;6723;48.256;16.402;2023-07-30T14:48:00;2.30;;;2.10;;
13309;SDS011;6723;48.256;16.402;2023-07-30T14:50:26;2.33;;;1.80;;